<?xml version="1.0" encoding="UTF-8" standalone="no" ?>
<gpx xmlns="http://www.topografix.com/GPX/1/1" xmlns:xsi="http://www.w3.org/2001/XMLSchema-instance" xsi:schemaLocation="http://www.topografix.com/GPX/1/1 http://www.topografix.com/GPX/1/1/gpx.xsd" version="1.1" creator="VisuGPX - https://www.visugpx.com">
  <metadata>
    <name>Ballade VTT entre route, chemin et piste</name>
    <desc><![CDATA[Ballade VTT entre route, chemin et piste au Sud de Vidauban. Traversée de plusieurs domaines viticoles.]]></desc>
  </metadata>
  <trk>
    <name><![CDATA[Virée dans les vignes au sud de Vidauban]]></name>
    <trkseg>
      <trkpt lat="43.41773" lon="6.42868">
        <ele>57</ele>
        <time>2018-10-23T22:02:58+02:00</time>
      </trkpt>
      <trkpt lat="43.41776" lon="6.42859">
        <ele>57</ele>
        <time>2018-10-23T22:03:03+02:00</time>
      </trkpt>
      <trkpt lat="43.4172" lon="6.42853">
        <ele>58</ele>
        <time>2018-10-23T22:03:08+02:00</time>
      </trkpt>
      <trkpt lat="43.41667" lon="6.42827">
        <ele>59</ele>
        <time>2018-10-23T22:03:13+02:00</time>
      </trkpt>
      <trkpt lat="43.41643" lon="6.42807">
        <ele>60</ele>
        <time>2018-10-23T22:03:18+02:00</time>
      </trkpt>
      <trkpt lat="43.41597" lon="6.42788">
        <ele>61</ele>
        <time>2018-10-23T22:03:23+02:00</time>
      </trkpt>
      <trkpt lat="43.41569" lon="6.42797">
        <ele>63</ele>
        <time>2018-10-23T22:03:28+02:00</time>
      </trkpt>
      <trkpt lat="43.41551" lon="6.42807">
        <ele>63</ele>
        <time>2018-10-23T22:03:33+02:00</time>
      </trkpt>
      <trkpt lat="43.41539" lon="6.42799">
        <ele>62</ele>
        <time>2018-10-23T22:03:38+02:00</time>
      </trkpt>
      <trkpt lat="43.41455" lon="6.43087">
        <ele>75</ele>
        <time>2018-10-23T22:03:43+02:00</time>
      </trkpt>
      <trkpt lat="43.41449" lon="6.43159">
        <ele>75</ele>
        <time>2018-10-23T22:03:48+02:00</time>
      </trkpt>
      <trkpt lat="43.41486" lon="6.43387">
        <ele>80</ele>
        <time>2018-10-23T22:03:53+02:00</time>
      </trkpt>
      <trkpt lat="43.4148" lon="6.4376">
        <ele>80</ele>
        <time>2018-10-23T22:03:58+02:00</time>
      </trkpt>
      <trkpt lat="43.41449" lon="6.44074">
        <ele>75</ele>
        <time>2018-10-23T22:04:03+02:00</time>
      </trkpt>
      <trkpt lat="43.41408" lon="6.44314">
        <ele>70</ele>
        <time>2018-10-23T22:04:08+02:00</time>
      </trkpt>
      <trkpt lat="43.41411" lon="6.44378">
        <ele>70</ele>
        <time>2018-10-23T22:04:13+02:00</time>
      </trkpt>
      <trkpt lat="43.41337" lon="6.44407">
        <ele>70</ele>
        <time>2018-10-23T22:04:18+02:00</time>
      </trkpt>
      <trkpt lat="43.41321" lon="6.44457">
        <ele>70</ele>
        <time>2018-10-23T22:04:23+02:00</time>
      </trkpt>
      <trkpt lat="43.41301" lon="6.44505">
        <ele>70</ele>
        <time>2018-10-23T22:04:28+02:00</time>
      </trkpt>
      <trkpt lat="43.41297" lon="6.44531">
        <ele>70</ele>
        <time>2018-10-23T22:04:33+02:00</time>
      </trkpt>
      <trkpt lat="43.41303" lon="6.44614">
        <ele>70</ele>
        <time>2018-10-23T22:04:38+02:00</time>
      </trkpt>
      <trkpt lat="43.41289" lon="6.44706">
        <ele>73</ele>
        <time>2018-10-23T22:04:43+02:00</time>
      </trkpt>
      <trkpt lat="43.41289" lon="6.44732">
        <ele>74</ele>
        <time>2018-10-23T22:04:48+02:00</time>
      </trkpt>
      <trkpt lat="43.41312" lon="6.44844">
        <ele>74</ele>
        <time>2018-10-23T22:04:53+02:00</time>
      </trkpt>
      <trkpt lat="43.41313" lon="6.44888">
        <ele>75</ele>
        <time>2018-10-23T22:04:58+02:00</time>
      </trkpt>
      <trkpt lat="43.41346" lon="6.45021">
        <ele>76</ele>
        <time>2018-10-23T22:05:03+02:00</time>
      </trkpt>
      <trkpt lat="43.41351" lon="6.45064">
        <ele>76</ele>
        <time>2018-10-23T22:05:08+02:00</time>
      </trkpt>
      <trkpt lat="43.41319" lon="6.45176">
        <ele>74</ele>
        <time>2018-10-23T22:05:13+02:00</time>
      </trkpt>
      <trkpt lat="43.41318" lon="6.45218">
        <ele>77</ele>
        <time>2018-10-23T22:05:18+02:00</time>
      </trkpt>
      <trkpt lat="43.41328" lon="6.45249">
        <ele>79</ele>
        <time>2018-10-23T22:05:23+02:00</time>
      </trkpt>
      <trkpt lat="43.41344" lon="6.45279">
        <ele>80</ele>
        <time>2018-10-23T22:05:28+02:00</time>
      </trkpt>
      <trkpt lat="43.41348" lon="6.45293">
        <ele>79</ele>
        <time>2018-10-23T22:05:33+02:00</time>
      </trkpt>
      <trkpt lat="43.41338" lon="6.45315">
        <ele>80</ele>
        <time>2018-10-23T22:05:38+02:00</time>
      </trkpt>
      <trkpt lat="43.41333" lon="6.45337">
        <ele>79</ele>
        <time>2018-10-23T22:05:43+02:00</time>
      </trkpt>
      <trkpt lat="43.41335" lon="6.45364">
        <ele>79</ele>
        <time>2018-10-23T22:05:48+02:00</time>
      </trkpt>
      <trkpt lat="43.41341" lon="6.45388">
        <ele>79</ele>
        <time>2018-10-23T22:05:53+02:00</time>
      </trkpt>
      <trkpt lat="43.41353" lon="6.45408">
        <ele>79</ele>
        <time>2018-10-23T22:05:58+02:00</time>
      </trkpt>
      <trkpt lat="43.41383" lon="6.45438">
        <ele>79</ele>
        <time>2018-10-23T22:06:03+02:00</time>
      </trkpt>
      <trkpt lat="43.41399" lon="6.45481">
        <ele>81</ele>
        <time>2018-10-23T22:06:08+02:00</time>
      </trkpt>
      <trkpt lat="43.41397" lon="6.4553">
        <ele>84</ele>
        <time>2018-10-23T22:06:13+02:00</time>
      </trkpt>
      <trkpt lat="43.41371" lon="6.45511">
        <ele>84</ele>
        <time>2018-10-23T22:06:18+02:00</time>
      </trkpt>
      <trkpt lat="43.41341" lon="6.45506">
        <ele>85</ele>
        <time>2018-10-23T22:06:23+02:00</time>
      </trkpt>
      <trkpt lat="43.41305" lon="6.45501">
        <ele>85</ele>
        <time>2018-10-23T22:06:28+02:00</time>
      </trkpt>
      <trkpt lat="43.41279" lon="6.45511">
        <ele>86</ele>
        <time>2018-10-23T22:06:33+02:00</time>
      </trkpt>
      <trkpt lat="43.41224" lon="6.45526">
        <ele>84</ele>
        <time>2018-10-23T22:06:38+02:00</time>
      </trkpt>
      <trkpt lat="43.41193" lon="6.45578">
        <ele>86</ele>
        <time>2018-10-23T22:06:43+02:00</time>
      </trkpt>
      <trkpt lat="43.41189" lon="6.45636">
        <ele>91</ele>
        <time>2018-10-23T22:06:48+02:00</time>
      </trkpt>
      <trkpt lat="43.41231" lon="6.4567">
        <ele>100</ele>
        <time>2018-10-23T22:06:53+02:00</time>
      </trkpt>
      <trkpt lat="43.41242" lon="6.45767">
        <ele>101</ele>
        <time>2018-10-23T22:06:58+02:00</time>
      </trkpt>
      <trkpt lat="43.4126" lon="6.45799">
        <ele>104</ele>
        <time>2018-10-23T22:07:03+02:00</time>
      </trkpt>
      <trkpt lat="43.41299" lon="6.4585">
        <ele>112</ele>
        <time>2018-10-23T22:07:08+02:00</time>
      </trkpt>
      <trkpt lat="43.41312" lon="6.4586">
        <ele>115</ele>
        <time>2018-10-23T22:07:13+02:00</time>
      </trkpt>
      <trkpt lat="43.41327" lon="6.45917">
        <ele>116</ele>
        <time>2018-10-23T22:07:18+02:00</time>
      </trkpt>
      <trkpt lat="43.41332" lon="6.45949">
        <ele>114</ele>
        <time>2018-10-23T22:07:23+02:00</time>
      </trkpt>
      <trkpt lat="43.41348" lon="6.45972">
        <ele>116</ele>
        <time>2018-10-23T22:07:28+02:00</time>
      </trkpt>
      <trkpt lat="43.41379" lon="6.46013">
        <ele>121</ele>
        <time>2018-10-23T22:07:33+02:00</time>
      </trkpt>
      <trkpt lat="43.41395" lon="6.46046">
        <ele>126</ele>
        <time>2018-10-23T22:07:38+02:00</time>
      </trkpt>
      <trkpt lat="43.41401" lon="6.46116">
        <ele>125</ele>
        <time>2018-10-23T22:07:43+02:00</time>
      </trkpt>
      <trkpt lat="43.41402" lon="6.46161">
        <ele>122</ele>
        <time>2018-10-23T22:07:48+02:00</time>
      </trkpt>
      <trkpt lat="43.41434" lon="6.46208">
        <ele>118</ele>
        <time>2018-10-23T22:07:53+02:00</time>
      </trkpt>
      <trkpt lat="43.41452" lon="6.46206">
        <ele>117</ele>
        <time>2018-10-23T22:07:58+02:00</time>
      </trkpt>
      <trkpt lat="43.41494" lon="6.4618">
        <ele>115</ele>
        <time>2018-10-23T22:08:03+02:00</time>
      </trkpt>
      <trkpt lat="43.41505" lon="6.46171">
        <ele>115</ele>
        <time>2018-10-23T22:08:08+02:00</time>
      </trkpt>
      <trkpt lat="43.4152" lon="6.4617">
        <ele>112</ele>
        <time>2018-10-23T22:08:13+02:00</time>
      </trkpt>
      <trkpt lat="43.41533" lon="6.46161">
        <ele>111</ele>
        <time>2018-10-23T22:08:18+02:00</time>
      </trkpt>
      <trkpt lat="43.41554" lon="6.46146">
        <ele>109</ele>
        <time>2018-10-23T22:08:23+02:00</time>
      </trkpt>
      <trkpt lat="43.41572" lon="6.46114">
        <ele>109</ele>
        <time>2018-10-23T22:08:28+02:00</time>
      </trkpt>
      <trkpt lat="43.41593" lon="6.4608">
        <ele>108</ele>
        <time>2018-10-23T22:08:33+02:00</time>
      </trkpt>
      <trkpt lat="43.41593" lon="6.46056">
        <ele>110</ele>
        <time>2018-10-23T22:08:38+02:00</time>
      </trkpt>
      <trkpt lat="43.41588" lon="6.46041">
        <ele>112</ele>
        <time>2018-10-23T22:08:43+02:00</time>
      </trkpt>
      <trkpt lat="43.41572" lon="6.4597">
        <ele>113</ele>
        <time>2018-10-23T22:08:48+02:00</time>
      </trkpt>
      <trkpt lat="43.4157" lon="6.45945">
        <ele>111</ele>
        <time>2018-10-23T22:08:53+02:00</time>
      </trkpt>
      <trkpt lat="43.41575" lon="6.45917">
        <ele>106</ele>
        <time>2018-10-23T22:08:58+02:00</time>
      </trkpt>
      <trkpt lat="43.41582" lon="6.45902">
        <ele>103</ele>
        <time>2018-10-23T22:09:03+02:00</time>
      </trkpt>
      <trkpt lat="43.41581" lon="6.45876">
        <ele>101</ele>
        <time>2018-10-23T22:09:08+02:00</time>
      </trkpt>
      <trkpt lat="43.41581" lon="6.45825">
        <ele>98</ele>
        <time>2018-10-23T22:09:13+02:00</time>
      </trkpt>
      <trkpt lat="43.41578" lon="6.45782">
        <ele>94</ele>
        <time>2018-10-23T22:09:18+02:00</time>
      </trkpt>
      <trkpt lat="43.4156" lon="6.4577">
        <ele>94</ele>
        <time>2018-10-23T22:09:23+02:00</time>
      </trkpt>
      <trkpt lat="43.41549" lon="6.45756">
        <ele>94</ele>
        <time>2018-10-23T22:09:28+02:00</time>
      </trkpt>
      <trkpt lat="43.41552" lon="6.45713">
        <ele>90</ele>
        <time>2018-10-23T22:09:33+02:00</time>
      </trkpt>
      <trkpt lat="43.41521" lon="6.45685">
        <ele>89</ele>
        <time>2018-10-23T22:09:38+02:00</time>
      </trkpt>
      <trkpt lat="43.41517" lon="6.45657">
        <ele>89</ele>
        <time>2018-10-23T22:09:43+02:00</time>
      </trkpt>
      <trkpt lat="43.41512" lon="6.45647">
        <ele>89</ele>
        <time>2018-10-23T22:09:48+02:00</time>
      </trkpt>
      <trkpt lat="43.41499" lon="6.45642">
        <ele>89</ele>
        <time>2018-10-23T22:09:53+02:00</time>
      </trkpt>
      <trkpt lat="43.41488" lon="6.4562">
        <ele>88</ele>
        <time>2018-10-23T22:09:58+02:00</time>
      </trkpt>
      <trkpt lat="43.41471" lon="6.45609">
        <ele>88</ele>
        <time>2018-10-23T22:10:03+02:00</time>
      </trkpt>
      <trkpt lat="43.41451" lon="6.45582">
        <ele>87</ele>
        <time>2018-10-23T22:10:08+02:00</time>
      </trkpt>
      <trkpt lat="43.41421" lon="6.45555">
        <ele>86</ele>
        <time>2018-10-23T22:10:13+02:00</time>
      </trkpt>
      <trkpt lat="43.41402" lon="6.45538">
        <ele>85</ele>
        <time>2018-10-23T22:10:18+02:00</time>
      </trkpt>
      <trkpt lat="43.41406" lon="6.45485">
        <ele>81</ele>
        <time>2018-10-23T22:10:23+02:00</time>
      </trkpt>
      <trkpt lat="43.41376" lon="6.45439">
        <ele>79</ele>
        <time>2018-10-23T22:10:28+02:00</time>
      </trkpt>
      <trkpt lat="43.41361" lon="6.45425">
        <ele>79</ele>
        <time>2018-10-23T22:10:33+02:00</time>
      </trkpt>
      <trkpt lat="43.41338" lon="6.45399">
        <ele>79</ele>
        <time>2018-10-23T22:10:38+02:00</time>
      </trkpt>
      <trkpt lat="43.41327" lon="6.45365">
        <ele>79</ele>
        <time>2018-10-23T22:10:43+02:00</time>
      </trkpt>
      <trkpt lat="43.41327" lon="6.45324">
        <ele>79</ele>
        <time>2018-10-23T22:10:48+02:00</time>
      </trkpt>
      <trkpt lat="43.41342" lon="6.45287">
        <ele>80</ele>
        <time>2018-10-23T22:10:53+02:00</time>
      </trkpt>
      <trkpt lat="43.41332" lon="6.45268">
        <ele>80</ele>
        <time>2018-10-23T22:10:58+02:00</time>
      </trkpt>
      <trkpt lat="43.41311" lon="6.45223">
        <ele>76</ele>
        <time>2018-10-23T22:11:03+02:00</time>
      </trkpt>
      <trkpt lat="43.41313" lon="6.45182">
        <ele>74</ele>
        <time>2018-10-23T22:11:08+02:00</time>
      </trkpt>
      <trkpt lat="43.41322" lon="6.45135">
        <ele>74</ele>
        <time>2018-10-23T22:11:13+02:00</time>
      </trkpt>
      <trkpt lat="43.41332" lon="6.45102">
        <ele>75</ele>
        <time>2018-10-23T22:11:18+02:00</time>
      </trkpt>
      <trkpt lat="43.41346" lon="6.45061">
        <ele>76</ele>
        <time>2018-10-23T22:11:23+02:00</time>
      </trkpt>
      <trkpt lat="43.4134" lon="6.45016">
        <ele>76</ele>
        <time>2018-10-23T22:11:28+02:00</time>
      </trkpt>
      <trkpt lat="43.41305" lon="6.44875">
        <ele>74</ele>
        <time>2018-10-23T22:11:33+02:00</time>
      </trkpt>
      <trkpt lat="43.41307" lon="6.44839">
        <ele>74</ele>
        <time>2018-10-23T22:11:38+02:00</time>
      </trkpt>
      <trkpt lat="43.41286" lon="6.44747">
        <ele>74</ele>
        <time>2018-10-23T22:11:43+02:00</time>
      </trkpt>
      <trkpt lat="43.41282" lon="6.44708">
        <ele>73</ele>
        <time>2018-10-23T22:11:48+02:00</time>
      </trkpt>
      <trkpt lat="43.41296" lon="6.44613">
        <ele>70</ele>
        <time>2018-10-23T22:11:53+02:00</time>
      </trkpt>
      <trkpt lat="43.41291" lon="6.44534">
        <ele>70</ele>
        <time>2018-10-23T22:11:58+02:00</time>
      </trkpt>
      <trkpt lat="43.41293" lon="6.44505">
        <ele>70</ele>
        <time>2018-10-23T22:12:03+02:00</time>
      </trkpt>
      <trkpt lat="43.41313" lon="6.44461">
        <ele>70</ele>
        <time>2018-10-23T22:12:08+02:00</time>
      </trkpt>
      <trkpt lat="43.4133" lon="6.44413">
        <ele>70</ele>
        <time>2018-10-23T22:12:13+02:00</time>
      </trkpt>
      <trkpt lat="43.4119" lon="6.44489">
        <ele>64</ele>
        <time>2018-10-23T22:12:18+02:00</time>
      </trkpt>
      <trkpt lat="43.41169" lon="6.44512">
        <ele>61</ele>
        <time>2018-10-23T22:12:23+02:00</time>
      </trkpt>
      <trkpt lat="43.41138" lon="6.4456">
        <ele>60</ele>
        <time>2018-10-23T22:12:28+02:00</time>
      </trkpt>
      <trkpt lat="43.41118" lon="6.44606">
        <ele>60</ele>
        <time>2018-10-23T22:12:33+02:00</time>
      </trkpt>
      <trkpt lat="43.41083" lon="6.44639">
        <ele>60</ele>
        <time>2018-10-23T22:12:38+02:00</time>
      </trkpt>
      <trkpt lat="43.41049" lon="6.44695">
        <ele>60</ele>
        <time>2018-10-23T22:12:43+02:00</time>
      </trkpt>
      <trkpt lat="43.41018" lon="6.44754">
        <ele>60</ele>
        <time>2018-10-23T22:12:48+02:00</time>
      </trkpt>
      <trkpt lat="43.40993" lon="6.44832">
        <ele>59</ele>
        <time>2018-10-23T22:12:53+02:00</time>
      </trkpt>
      <trkpt lat="43.40955" lon="6.4488">
        <ele>55</ele>
        <time>2018-10-23T22:12:58+02:00</time>
      </trkpt>
      <trkpt lat="43.40917" lon="6.44927">
        <ele>52</ele>
        <time>2018-10-23T22:13:03+02:00</time>
      </trkpt>
      <trkpt lat="43.40878" lon="6.44968">
        <ele>51</ele>
        <time>2018-10-23T22:13:08+02:00</time>
      </trkpt>
      <trkpt lat="43.40849" lon="6.45022">
        <ele>51</ele>
        <time>2018-10-23T22:13:13+02:00</time>
      </trkpt>
      <trkpt lat="43.40837" lon="6.45056">
        <ele>50</ele>
        <time>2018-10-23T22:13:18+02:00</time>
      </trkpt>
      <trkpt lat="43.40839" lon="6.45129">
        <ele>54</ele>
        <time>2018-10-23T22:13:23+02:00</time>
      </trkpt>
      <trkpt lat="43.40816" lon="6.45195">
        <ele>56</ele>
        <time>2018-10-23T22:13:28+02:00</time>
      </trkpt>
      <trkpt lat="43.40797" lon="6.45252">
        <ele>56</ele>
        <time>2018-10-23T22:13:33+02:00</time>
      </trkpt>
      <trkpt lat="43.40783" lon="6.45318">
        <ele>56</ele>
        <time>2018-10-23T22:13:38+02:00</time>
      </trkpt>
      <trkpt lat="43.40769" lon="6.45361">
        <ele>56</ele>
        <time>2018-10-23T22:13:43+02:00</time>
      </trkpt>
      <trkpt lat="43.4076" lon="6.45488">
        <ele>59</ele>
        <time>2018-10-23T22:13:48+02:00</time>
      </trkpt>
      <trkpt lat="43.4069" lon="6.45586">
        <ele>55</ele>
        <time>2018-10-23T22:13:53+02:00</time>
      </trkpt>
      <trkpt lat="43.40553" lon="6.45653">
        <ele>48</ele>
        <time>2018-10-23T22:13:58+02:00</time>
      </trkpt>
      <trkpt lat="43.40476" lon="6.4549">
        <ele>43</ele>
        <time>2018-10-23T22:14:03+02:00</time>
      </trkpt>
      <trkpt lat="43.40432" lon="6.4544">
        <ele>41</ele>
        <time>2018-10-23T22:14:08+02:00</time>
      </trkpt>
      <trkpt lat="43.40395" lon="6.45329">
        <ele>40</ele>
        <time>2018-10-23T22:14:13+02:00</time>
      </trkpt>
      <trkpt lat="43.40364" lon="6.45262">
        <ele>40</ele>
        <time>2018-10-23T22:14:18+02:00</time>
      </trkpt>
      <trkpt lat="43.40353" lon="6.45185">
        <ele>40</ele>
        <time>2018-10-23T22:14:23+02:00</time>
      </trkpt>
      <trkpt lat="43.40314" lon="6.45168">
        <ele>40</ele>
        <time>2018-10-23T22:14:28+02:00</time>
      </trkpt>
      <trkpt lat="43.4028" lon="6.45086">
        <ele>40</ele>
        <time>2018-10-23T22:14:33+02:00</time>
      </trkpt>
      <trkpt lat="43.40264" lon="6.45022">
        <ele>40</ele>
        <time>2018-10-23T22:14:38+02:00</time>
      </trkpt>
      <trkpt lat="43.40255" lon="6.44988">
        <ele>40</ele>
        <time>2018-10-23T22:14:43+02:00</time>
      </trkpt>
      <trkpt lat="43.4021" lon="6.44913">
        <ele>40</ele>
        <time>2018-10-23T22:14:48+02:00</time>
      </trkpt>
      <trkpt lat="43.40207" lon="6.44888">
        <ele>40</ele>
        <time>2018-10-23T22:14:53+02:00</time>
      </trkpt>
      <trkpt lat="43.40191" lon="6.44857">
        <ele>40</ele>
        <time>2018-10-23T22:14:58+02:00</time>
      </trkpt>
      <trkpt lat="43.40185" lon="6.44833">
        <ele>40</ele>
        <time>2018-10-23T22:15:03+02:00</time>
      </trkpt>
      <trkpt lat="43.40148" lon="6.44827">
        <ele>40</ele>
        <time>2018-10-23T22:15:08+02:00</time>
      </trkpt>
      <trkpt lat="43.40125" lon="6.4483">
        <ele>40</ele>
        <time>2018-10-23T22:15:13+02:00</time>
      </trkpt>
      <trkpt lat="43.40102" lon="6.4484">
        <ele>40</ele>
        <time>2018-10-23T22:15:18+02:00</time>
      </trkpt>
      <trkpt lat="43.40078" lon="6.44849">
        <ele>40</ele>
        <time>2018-10-23T22:15:23+02:00</time>
      </trkpt>
      <trkpt lat="43.40061" lon="6.44872">
        <ele>40</ele>
        <time>2018-10-23T22:15:28+02:00</time>
      </trkpt>
      <trkpt lat="43.40037" lon="6.44962">
        <ele>40</ele>
        <time>2018-10-23T22:15:33+02:00</time>
      </trkpt>
      <trkpt lat="43.39857" lon="6.45146">
        <ele>44</ele>
        <time>2018-10-23T22:15:38+02:00</time>
      </trkpt>
      <trkpt lat="43.39844" lon="6.45187">
        <ele>45</ele>
        <time>2018-10-23T22:15:43+02:00</time>
      </trkpt>
      <trkpt lat="43.39837" lon="6.45241">
        <ele>44</ele>
        <time>2018-10-23T22:15:48+02:00</time>
      </trkpt>
      <trkpt lat="43.39845" lon="6.45329">
        <ele>43</ele>
        <time>2018-10-23T22:15:53+02:00</time>
      </trkpt>
      <trkpt lat="43.39829" lon="6.4538">
        <ele>46</ele>
        <time>2018-10-23T22:15:58+02:00</time>
      </trkpt>
      <trkpt lat="43.39844" lon="6.45538">
        <ele>47</ele>
        <time>2018-10-23T22:16:03+02:00</time>
      </trkpt>
      <trkpt lat="43.39859" lon="6.45595">
        <ele>43</ele>
        <time>2018-10-23T22:16:08+02:00</time>
      </trkpt>
      <trkpt lat="43.39853" lon="6.45616">
        <ele>42</ele>
        <time>2018-10-23T22:16:13+02:00</time>
      </trkpt>
      <trkpt lat="43.39832" lon="6.45616">
        <ele>43</ele>
        <time>2018-10-23T22:16:18+02:00</time>
      </trkpt>
      <trkpt lat="43.39783" lon="6.45579">
        <ele>45</ele>
        <time>2018-10-23T22:16:23+02:00</time>
      </trkpt>
      <trkpt lat="43.39737" lon="6.45541">
        <ele>44</ele>
        <time>2018-10-23T22:16:28+02:00</time>
      </trkpt>
      <trkpt lat="43.39706" lon="6.455">
        <ele>44</ele>
        <time>2018-10-23T22:16:33+02:00</time>
      </trkpt>
      <trkpt lat="43.39671" lon="6.4545">
        <ele>44</ele>
        <time>2018-10-23T22:16:38+02:00</time>
      </trkpt>
      <trkpt lat="43.39647" lon="6.45402">
        <ele>45</ele>
        <time>2018-10-23T22:16:43+02:00</time>
      </trkpt>
      <trkpt lat="43.39628" lon="6.45343">
        <ele>46</ele>
        <time>2018-10-23T22:16:48+02:00</time>
      </trkpt>
      <trkpt lat="43.39632" lon="6.4531">
        <ele>48</ele>
        <time>2018-10-23T22:16:53+02:00</time>
      </trkpt>
      <trkpt lat="43.39649" lon="6.4528">
        <ele>49</ele>
        <time>2018-10-23T22:16:58+02:00</time>
      </trkpt>
      <trkpt lat="43.39669" lon="6.45235">
        <ele>50</ele>
        <time>2018-10-23T22:17:03+02:00</time>
      </trkpt>
      <trkpt lat="43.39686" lon="6.45186">
        <ele>52</ele>
        <time>2018-10-23T22:17:08+02:00</time>
      </trkpt>
      <trkpt lat="43.39689" lon="6.45138">
        <ele>53</ele>
        <time>2018-10-23T22:17:13+02:00</time>
      </trkpt>
      <trkpt lat="43.3972" lon="6.45065">
        <ele>55</ele>
        <time>2018-10-23T22:17:18+02:00</time>
      </trkpt>
      <trkpt lat="43.39736" lon="6.44995">
        <ele>55</ele>
        <time>2018-10-23T22:17:23+02:00</time>
      </trkpt>
      <trkpt lat="43.39712" lon="6.44903">
        <ele>57</ele>
        <time>2018-10-23T22:17:28+02:00</time>
      </trkpt>
      <trkpt lat="43.39675" lon="6.44811">
        <ele>60</ele>
        <time>2018-10-23T22:17:33+02:00</time>
      </trkpt>
      <trkpt lat="43.39644" lon="6.44747">
        <ele>62</ele>
        <time>2018-10-23T22:17:38+02:00</time>
      </trkpt>
      <trkpt lat="43.39611" lon="6.44693">
        <ele>67</ele>
        <time>2018-10-23T22:17:43+02:00</time>
      </trkpt>
      <trkpt lat="43.39593" lon="6.4466">
        <ele>69</ele>
        <time>2018-10-23T22:17:48+02:00</time>
      </trkpt>
      <trkpt lat="43.39573" lon="6.446">
        <ele>70</ele>
        <time>2018-10-23T22:17:53+02:00</time>
      </trkpt>
      <trkpt lat="43.39552" lon="6.44562">
        <ele>72</ele>
        <time>2018-10-23T22:17:58+02:00</time>
      </trkpt>
      <trkpt lat="43.39526" lon="6.4453">
        <ele>73</ele>
        <time>2018-10-23T22:18:03+02:00</time>
      </trkpt>
      <trkpt lat="43.39512" lon="6.44503">
        <ele>73</ele>
        <time>2018-10-23T22:18:08+02:00</time>
      </trkpt>
      <trkpt lat="43.39499" lon="6.44468">
        <ele>74</ele>
        <time>2018-10-23T22:18:13+02:00</time>
      </trkpt>
      <trkpt lat="43.3949" lon="6.44433">
        <ele>75</ele>
        <time>2018-10-23T22:18:18+02:00</time>
      </trkpt>
      <trkpt lat="43.39487" lon="6.44402">
        <ele>75</ele>
        <time>2018-10-23T22:18:23+02:00</time>
      </trkpt>
      <trkpt lat="43.39477" lon="6.44359">
        <ele>75</ele>
        <time>2018-10-23T22:18:28+02:00</time>
      </trkpt>
      <trkpt lat="43.39467" lon="6.44309">
        <ele>74</ele>
        <time>2018-10-23T22:18:33+02:00</time>
      </trkpt>
      <trkpt lat="43.3945" lon="6.44251">
        <ele>75</ele>
        <time>2018-10-23T22:18:38+02:00</time>
      </trkpt>
      <trkpt lat="43.39412" lon="6.4416">
        <ele>75</ele>
        <time>2018-10-23T22:18:43+02:00</time>
      </trkpt>
      <trkpt lat="43.39397" lon="6.44066">
        <ele>74</ele>
        <time>2018-10-23T22:18:48+02:00</time>
      </trkpt>
      <trkpt lat="43.39397" lon="6.44022">
        <ele>74</ele>
        <time>2018-10-23T22:18:53+02:00</time>
      </trkpt>
      <trkpt lat="43.39394" lon="6.43963">
        <ele>73</ele>
        <time>2018-10-23T22:18:58+02:00</time>
      </trkpt>
      <trkpt lat="43.39395" lon="6.43894">
        <ele>72</ele>
        <time>2018-10-23T22:19:03+02:00</time>
      </trkpt>
      <trkpt lat="43.39397" lon="6.43831">
        <ele>71</ele>
        <time>2018-10-23T22:19:08+02:00</time>
      </trkpt>
      <trkpt lat="43.39397" lon="6.4379">
        <ele>70</ele>
        <time>2018-10-23T22:19:13+02:00</time>
      </trkpt>
      <trkpt lat="43.39375" lon="6.43753">
        <ele>70</ele>
        <time>2018-10-23T22:19:18+02:00</time>
      </trkpt>
      <trkpt lat="43.39357" lon="6.43713">
        <ele>69</ele>
        <time>2018-10-23T22:19:23+02:00</time>
      </trkpt>
      <trkpt lat="43.39343" lon="6.43668">
        <ele>70</ele>
        <time>2018-10-23T22:19:28+02:00</time>
      </trkpt>
      <trkpt lat="43.39348" lon="6.43613">
        <ele>70</ele>
        <time>2018-10-23T22:19:33+02:00</time>
      </trkpt>
      <trkpt lat="43.39344" lon="6.43556">
        <ele>69</ele>
        <time>2018-10-23T22:19:38+02:00</time>
      </trkpt>
      <trkpt lat="43.39332" lon="6.43504">
        <ele>66</ele>
        <time>2018-10-23T22:19:43+02:00</time>
      </trkpt>
      <trkpt lat="43.39297" lon="6.43458">
        <ele>66</ele>
        <time>2018-10-23T22:19:48+02:00</time>
      </trkpt>
      <trkpt lat="43.39396" lon="6.43201">
        <ele>65</ele>
        <time>2018-10-23T22:19:53+02:00</time>
      </trkpt>
      <trkpt lat="43.39426" lon="6.43105">
        <ele>65</ele>
        <time>2018-10-23T22:19:58+02:00</time>
      </trkpt>
      <trkpt lat="43.39443" lon="6.43038">
        <ele>65</ele>
        <time>2018-10-23T22:20:03+02:00</time>
      </trkpt>
      <trkpt lat="43.39473" lon="6.42847">
        <ele>65</ele>
        <time>2018-10-23T22:20:08+02:00</time>
      </trkpt>
      <trkpt lat="43.39504" lon="6.42665">
        <ele>65</ele>
        <time>2018-10-23T22:20:13+02:00</time>
      </trkpt>
      <trkpt lat="43.39575" lon="6.4241">
        <ele>63</ele>
        <time>2018-10-23T22:20:18+02:00</time>
      </trkpt>
      <trkpt lat="43.39648" lon="6.42097">
        <ele>65</ele>
        <time>2018-10-23T22:20:23+02:00</time>
      </trkpt>
      <trkpt lat="43.39673" lon="6.41844">
        <ele>70</ele>
        <time>2018-10-23T22:20:28+02:00</time>
      </trkpt>
      <trkpt lat="43.39804" lon="6.41226">
        <ele>74</ele>
        <time>2018-10-23T22:20:33+02:00</time>
      </trkpt>
      <trkpt lat="43.39753" lon="6.41213">
        <ele>72</ele>
        <time>2018-10-23T22:20:38+02:00</time>
      </trkpt>
      <trkpt lat="43.39644" lon="6.4123">
        <ele>68</ele>
        <time>2018-10-23T22:20:43+02:00</time>
      </trkpt>
      <trkpt lat="43.39564" lon="6.41222">
        <ele>65</ele>
        <time>2018-10-23T22:20:48+02:00</time>
      </trkpt>
      <trkpt lat="43.39452" lon="6.41185">
        <ele>63</ele>
        <time>2018-10-23T22:20:53+02:00</time>
      </trkpt>
      <trkpt lat="43.39319" lon="6.41151">
        <ele>60</ele>
        <time>2018-10-23T22:20:58+02:00</time>
      </trkpt>
      <trkpt lat="43.39249" lon="6.41145">
        <ele>60</ele>
        <time>2018-10-23T22:21:03+02:00</time>
      </trkpt>
      <trkpt lat="43.39165" lon="6.41095">
        <ele>60</ele>
        <time>2018-10-23T22:21:08+02:00</time>
      </trkpt>
      <trkpt lat="43.39129" lon="6.41093">
        <ele>60</ele>
        <time>2018-10-23T22:21:13+02:00</time>
      </trkpt>
      <trkpt lat="43.3897" lon="6.41024">
        <ele>61</ele>
        <time>2018-10-23T22:21:18+02:00</time>
      </trkpt>
      <trkpt lat="43.38954" lon="6.40906">
        <ele>62</ele>
        <time>2018-10-23T22:21:23+02:00</time>
      </trkpt>
      <trkpt lat="43.38853" lon="6.40816">
        <ele>63</ele>
        <time>2018-10-23T22:21:28+02:00</time>
      </trkpt>
      <trkpt lat="43.38285" lon="6.40497">
        <ele>65</ele>
        <time>2018-10-23T22:21:33+02:00</time>
      </trkpt>
      <trkpt lat="43.38137" lon="6.40743">
        <ele>60</ele>
        <time>2018-10-23T22:21:38+02:00</time>
      </trkpt>
      <trkpt lat="43.38129" lon="6.40784">
        <ele>60</ele>
        <time>2018-10-23T22:21:43+02:00</time>
      </trkpt>
      <trkpt lat="43.3815" lon="6.412">
        <ele>60</ele>
        <time>2018-10-23T22:21:48+02:00</time>
      </trkpt>
      <trkpt lat="43.38083" lon="6.41254">
        <ele>60</ele>
        <time>2018-10-23T22:21:53+02:00</time>
      </trkpt>
      <trkpt lat="43.3801" lon="6.41292">
        <ele>60</ele>
        <time>2018-10-23T22:21:58+02:00</time>
      </trkpt>
      <trkpt lat="43.3792" lon="6.41355">
        <ele>60</ele>
        <time>2018-10-23T22:22:03+02:00</time>
      </trkpt>
      <trkpt lat="43.37903" lon="6.41332">
        <ele>60</ele>
        <time>2018-10-23T22:22:08+02:00</time>
      </trkpt>
      <trkpt lat="43.37836" lon="6.41297">
        <ele>60</ele>
        <time>2018-10-23T22:22:13+02:00</time>
      </trkpt>
      <trkpt lat="43.37775" lon="6.41262">
        <ele>60</ele>
        <time>2018-10-23T22:22:18+02:00</time>
      </trkpt>
      <trkpt lat="43.37752" lon="6.41256">
        <ele>61</ele>
        <time>2018-10-23T22:22:23+02:00</time>
      </trkpt>
      <trkpt lat="43.37724" lon="6.41301">
        <ele>62</ele>
        <time>2018-10-23T22:22:28+02:00</time>
      </trkpt>
      <trkpt lat="43.37665" lon="6.41254">
        <ele>68</ele>
        <time>2018-10-23T22:22:33+02:00</time>
      </trkpt>
      <trkpt lat="43.37591" lon="6.41353">
        <ele>66</ele>
        <time>2018-10-23T22:22:38+02:00</time>
      </trkpt>
      <trkpt lat="43.3751" lon="6.41447">
        <ele>66</ele>
        <time>2018-10-23T22:22:43+02:00</time>
      </trkpt>
      <trkpt lat="43.37559" lon="6.41563">
        <ele>59</ele>
        <time>2018-10-23T22:22:48+02:00</time>
      </trkpt>
      <trkpt lat="43.37574" lon="6.4163">
        <ele>56</ele>
        <time>2018-10-23T22:22:53+02:00</time>
      </trkpt>
      <trkpt lat="43.37637" lon="6.4168">
        <ele>56</ele>
        <time>2018-10-23T22:22:58+02:00</time>
      </trkpt>
      <trkpt lat="43.37694" lon="6.41739">
        <ele>60</ele>
        <time>2018-10-23T22:23:03+02:00</time>
      </trkpt>
      <trkpt lat="43.37769" lon="6.41726">
        <ele>65</ele>
        <time>2018-10-23T22:23:08+02:00</time>
      </trkpt>
      <trkpt lat="43.37812" lon="6.41779">
        <ele>67</ele>
        <time>2018-10-23T22:23:13+02:00</time>
      </trkpt>
      <trkpt lat="43.37846" lon="6.41846">
        <ele>69</ele>
        <time>2018-10-23T22:23:18+02:00</time>
      </trkpt>
      <trkpt lat="43.37903" lon="6.41866">
        <ele>70</ele>
        <time>2018-10-23T22:23:23+02:00</time>
      </trkpt>
      <trkpt lat="43.38027" lon="6.41966">
        <ele>70</ele>
        <time>2018-10-23T22:23:28+02:00</time>
      </trkpt>
      <trkpt lat="43.38069" lon="6.41999">
        <ele>70</ele>
        <time>2018-10-23T22:23:33+02:00</time>
      </trkpt>
      <trkpt lat="43.38161" lon="6.42129">
        <ele>70</ele>
        <time>2018-10-23T22:23:38+02:00</time>
      </trkpt>
      <trkpt lat="43.38289" lon="6.42301">
        <ele>70</ele>
        <time>2018-10-23T22:23:43+02:00</time>
      </trkpt>
      <trkpt lat="43.38805" lon="6.42114">
        <ele>60</ele>
        <time>2018-10-23T22:23:48+02:00</time>
      </trkpt>
      <trkpt lat="43.3883" lon="6.42089">
        <ele>60</ele>
        <time>2018-10-23T22:23:53+02:00</time>
      </trkpt>
      <trkpt lat="43.38867" lon="6.42065">
        <ele>60</ele>
        <time>2018-10-23T22:23:58+02:00</time>
      </trkpt>
      <trkpt lat="43.38915" lon="6.42011">
        <ele>57</ele>
        <time>2018-10-23T22:24:03+02:00</time>
      </trkpt>
      <trkpt lat="43.38978" lon="6.42033">
        <ele>55</ele>
        <time>2018-10-23T22:24:08+02:00</time>
      </trkpt>
      <trkpt lat="43.39071" lon="6.42033">
        <ele>56</ele>
        <time>2018-10-23T22:24:13+02:00</time>
      </trkpt>
      <trkpt lat="43.39168" lon="6.4205">
        <ele>58</ele>
        <time>2018-10-23T22:24:18+02:00</time>
      </trkpt>
      <trkpt lat="43.39404" lon="6.42065">
        <ele>61</ele>
        <time>2018-10-23T22:24:23+02:00</time>
      </trkpt>
      <trkpt lat="43.39637" lon="6.42093">
        <ele>65</ele>
        <time>2018-10-23T22:24:28+02:00</time>
      </trkpt>
      <trkpt lat="43.39552" lon="6.42467">
        <ele>62</ele>
        <time>2018-10-23T22:24:33+02:00</time>
      </trkpt>
      <trkpt lat="43.39489" lon="6.4269">
        <ele>65</ele>
        <time>2018-10-23T22:24:38+02:00</time>
      </trkpt>
      <trkpt lat="43.3946" lon="6.42848">
        <ele>65</ele>
        <time>2018-10-23T22:24:43+02:00</time>
      </trkpt>
      <trkpt lat="43.39432" lon="6.43033">
        <ele>65</ele>
        <time>2018-10-23T22:24:48+02:00</time>
      </trkpt>
      <trkpt lat="43.39386" lon="6.43192">
        <ele>65</ele>
        <time>2018-10-23T22:24:53+02:00</time>
      </trkpt>
      <trkpt lat="43.39288" lon="6.43468">
        <ele>67</ele>
        <time>2018-10-23T22:24:58+02:00</time>
      </trkpt>
      <trkpt lat="43.3932" lon="6.4351">
        <ele>67</ele>
        <time>2018-10-23T22:25:03+02:00</time>
      </trkpt>
      <trkpt lat="43.39336" lon="6.43567">
        <ele>69</ele>
        <time>2018-10-23T22:25:08+02:00</time>
      </trkpt>
      <trkpt lat="43.39336" lon="6.43689">
        <ele>70</ele>
        <time>2018-10-23T22:25:13+02:00</time>
      </trkpt>
      <trkpt lat="43.39388" lon="6.43807">
        <ele>70</ele>
        <time>2018-10-23T22:25:18+02:00</time>
      </trkpt>
      <trkpt lat="43.39388" lon="6.44037">
        <ele>74</ele>
        <time>2018-10-23T22:25:23+02:00</time>
      </trkpt>
      <trkpt lat="43.39396" lon="6.44108">
        <ele>75</ele>
        <time>2018-10-23T22:25:28+02:00</time>
      </trkpt>
      <trkpt lat="43.39407" lon="6.44167">
        <ele>75</ele>
        <time>2018-10-23T22:25:33+02:00</time>
      </trkpt>
      <trkpt lat="43.39442" lon="6.44252">
        <ele>75</ele>
        <time>2018-10-23T22:25:38+02:00</time>
      </trkpt>
      <trkpt lat="43.39463" lon="6.44318">
        <ele>75</ele>
        <time>2018-10-23T22:25:43+02:00</time>
      </trkpt>
      <trkpt lat="43.39474" lon="6.44371">
        <ele>75</ele>
        <time>2018-10-23T22:25:48+02:00</time>
      </trkpt>
      <trkpt lat="43.39481" lon="6.44409">
        <ele>75</ele>
        <time>2018-10-23T22:25:53+02:00</time>
      </trkpt>
      <trkpt lat="43.39485" lon="6.44443">
        <ele>76</ele>
        <time>2018-10-23T22:25:58+02:00</time>
      </trkpt>
      <trkpt lat="43.39494" lon="6.44476">
        <ele>75</ele>
        <time>2018-10-23T22:26:03+02:00</time>
      </trkpt>
      <trkpt lat="43.39508" lon="6.4451">
        <ele>74</ele>
        <time>2018-10-23T22:26:08+02:00</time>
      </trkpt>
      <trkpt lat="43.3952" lon="6.44536">
        <ele>74</ele>
        <time>2018-10-23T22:26:13+02:00</time>
      </trkpt>
      <trkpt lat="43.39543" lon="6.44561">
        <ele>73</ele>
        <time>2018-10-23T22:26:18+02:00</time>
      </trkpt>
      <trkpt lat="43.39568" lon="6.44605">
        <ele>71</ele>
        <time>2018-10-23T22:26:23+02:00</time>
      </trkpt>
      <trkpt lat="43.39601" lon="6.44697">
        <ele>67</ele>
        <time>2018-10-23T22:26:28+02:00</time>
      </trkpt>
      <trkpt lat="43.39634" lon="6.44745">
        <ele>62</ele>
        <time>2018-10-23T22:26:33+02:00</time>
      </trkpt>
      <trkpt lat="43.39666" lon="6.44807">
        <ele>60</ele>
        <time>2018-10-23T22:26:38+02:00</time>
      </trkpt>
      <trkpt lat="43.3969" lon="6.44866">
        <ele>60</ele>
        <time>2018-10-23T22:26:43+02:00</time>
      </trkpt>
      <trkpt lat="43.39709" lon="6.44915">
        <ele>58</ele>
        <time>2018-10-23T22:26:48+02:00</time>
      </trkpt>
      <trkpt lat="43.3973" lon="6.44996">
        <ele>55</ele>
        <time>2018-10-23T22:26:53+02:00</time>
      </trkpt>
      <trkpt lat="43.39715" lon="6.45058">
        <ele>55</ele>
        <time>2018-10-23T22:26:58+02:00</time>
      </trkpt>
      <trkpt lat="43.3969" lon="6.45118">
        <ele>53</ele>
        <time>2018-10-23T22:27:03+02:00</time>
      </trkpt>
      <trkpt lat="43.39681" lon="6.45172">
        <ele>52</ele>
        <time>2018-10-23T22:27:08+02:00</time>
      </trkpt>
      <trkpt lat="43.39668" lon="6.45222">
        <ele>50</ele>
        <time>2018-10-23T22:27:13+02:00</time>
      </trkpt>
      <trkpt lat="43.39645" lon="6.45273">
        <ele>49</ele>
        <time>2018-10-23T22:27:18+02:00</time>
      </trkpt>
      <trkpt lat="43.39621" lon="6.45319">
        <ele>47</ele>
        <time>2018-10-23T22:27:23+02:00</time>
      </trkpt>
      <trkpt lat="43.39621" lon="6.45348">
        <ele>45</ele>
        <time>2018-10-23T22:27:28+02:00</time>
      </trkpt>
      <trkpt lat="43.39652" lon="6.45428">
        <ele>44</ele>
        <time>2018-10-23T22:27:33+02:00</time>
      </trkpt>
      <trkpt lat="43.39736" lon="6.45553">
        <ele>42</ele>
        <time>2018-10-23T22:27:38+02:00</time>
      </trkpt>
      <trkpt lat="43.39783" lon="6.45591">
        <ele>43</ele>
        <time>2018-10-23T22:27:43+02:00</time>
      </trkpt>
      <trkpt lat="43.3983" lon="6.45627">
        <ele>42</ele>
        <time>2018-10-23T22:27:48+02:00</time>
      </trkpt>
      <trkpt lat="43.39859" lon="6.45622">
        <ele>41</ele>
        <time>2018-10-23T22:27:53+02:00</time>
      </trkpt>
      <trkpt lat="43.39865" lon="6.45606">
        <ele>42</ele>
        <time>2018-10-23T22:27:58+02:00</time>
      </trkpt>
      <trkpt lat="43.39863" lon="6.45582">
        <ele>44</ele>
        <time>2018-10-23T22:28:03+02:00</time>
      </trkpt>
      <trkpt lat="43.39852" lon="6.45546">
        <ele>46</ele>
        <time>2018-10-23T22:28:08+02:00</time>
      </trkpt>
      <trkpt lat="43.39839" lon="6.45429">
        <ele>44</ele>
        <time>2018-10-23T22:28:13+02:00</time>
      </trkpt>
      <trkpt lat="43.39841" lon="6.45389">
        <ele>44</ele>
        <time>2018-10-23T22:28:18+02:00</time>
      </trkpt>
      <trkpt lat="43.39853" lon="6.45328">
        <ele>42</ele>
        <time>2018-10-23T22:28:23+02:00</time>
      </trkpt>
      <trkpt lat="43.39845" lon="6.45243">
        <ele>43</ele>
        <time>2018-10-23T22:28:28+02:00</time>
      </trkpt>
      <trkpt lat="43.39849" lon="6.45196">
        <ele>44</ele>
        <time>2018-10-23T22:28:33+02:00</time>
      </trkpt>
      <trkpt lat="43.39863" lon="6.45151">
        <ele>44</ele>
        <time>2018-10-23T22:28:38+02:00</time>
      </trkpt>
      <trkpt lat="43.39989" lon="6.45026">
        <ele>40</ele>
        <time>2018-10-23T22:28:43+02:00</time>
      </trkpt>
      <trkpt lat="43.40044" lon="6.44963">
        <ele>40</ele>
        <time>2018-10-23T22:28:48+02:00</time>
      </trkpt>
      <trkpt lat="43.40062" lon="6.44894">
        <ele>40</ele>
        <time>2018-10-23T22:28:53+02:00</time>
      </trkpt>
      <trkpt lat="43.40071" lon="6.44871">
        <ele>40</ele>
        <time>2018-10-23T22:28:58+02:00</time>
      </trkpt>
      <trkpt lat="43.40081" lon="6.44859">
        <ele>40</ele>
        <time>2018-10-23T22:29:03+02:00</time>
      </trkpt>
      <trkpt lat="43.40126" lon="6.44838">
        <ele>40</ele>
        <time>2018-10-23T22:29:08+02:00</time>
      </trkpt>
      <trkpt lat="43.40182" lon="6.44841">
        <ele>40</ele>
        <time>2018-10-23T22:29:13+02:00</time>
      </trkpt>
      <trkpt lat="43.40189" lon="6.44872">
        <ele>40</ele>
        <time>2018-10-23T22:29:18+02:00</time>
      </trkpt>
      <trkpt lat="43.40202" lon="6.44896">
        <ele>40</ele>
        <time>2018-10-23T22:29:23+02:00</time>
      </trkpt>
      <trkpt lat="43.40206" lon="6.44923">
        <ele>40</ele>
        <time>2018-10-23T22:29:28+02:00</time>
      </trkpt>
      <trkpt lat="43.4025" lon="6.44991">
        <ele>40</ele>
        <time>2018-10-23T22:29:33+02:00</time>
      </trkpt>
      <trkpt lat="43.40254" lon="6.45009">
        <ele>40</ele>
        <time>2018-10-23T22:29:38+02:00</time>
      </trkpt>
      <trkpt lat="43.4028" lon="6.45108">
        <ele>40</ele>
        <time>2018-10-23T22:29:43+02:00</time>
      </trkpt>
      <trkpt lat="43.40303" lon="6.45158">
        <ele>40</ele>
        <time>2018-10-23T22:29:48+02:00</time>
      </trkpt>
      <trkpt lat="43.40362" lon="6.45183">
        <ele>40</ele>
        <time>2018-10-23T22:29:53+02:00</time>
      </trkpt>
      <trkpt lat="43.40373" lon="6.45266">
        <ele>40</ele>
        <time>2018-10-23T22:29:58+02:00</time>
      </trkpt>
      <trkpt lat="43.4039" lon="6.45302">
        <ele>40</ele>
        <time>2018-10-23T22:30:03+02:00</time>
      </trkpt>
      <trkpt lat="43.40425" lon="6.45398">
        <ele>41</ele>
        <time>2018-10-23T22:30:08+02:00</time>
      </trkpt>
      <trkpt lat="43.40439" lon="6.45439">
        <ele>41</ele>
        <time>2018-10-23T22:30:13+02:00</time>
      </trkpt>
      <trkpt lat="43.40489" lon="6.45493">
        <ele>43</ele>
        <time>2018-10-23T22:30:18+02:00</time>
      </trkpt>
      <trkpt lat="43.40517" lon="6.45551">
        <ele>46</ele>
        <time>2018-10-23T22:30:23+02:00</time>
      </trkpt>
      <trkpt lat="43.40556" lon="6.45642">
        <ele>48</ele>
        <time>2018-10-23T22:30:28+02:00</time>
      </trkpt>
      <trkpt lat="43.4065" lon="6.45597">
        <ele>52</ele>
        <time>2018-10-23T22:30:33+02:00</time>
      </trkpt>
      <trkpt lat="43.40691" lon="6.45572">
        <ele>54</ele>
        <time>2018-10-23T22:30:38+02:00</time>
      </trkpt>
      <trkpt lat="43.40765" lon="6.45479">
        <ele>59</ele>
        <time>2018-10-23T22:30:43+02:00</time>
      </trkpt>
      <trkpt lat="43.40774" lon="6.45376">
        <ele>57</ele>
        <time>2018-10-23T22:30:48+02:00</time>
      </trkpt>
      <trkpt lat="43.40786" lon="6.45334">
        <ele>57</ele>
        <time>2018-10-23T22:30:53+02:00</time>
      </trkpt>
      <trkpt lat="43.40797" lon="6.45276">
        <ele>57</ele>
        <time>2018-10-23T22:30:58+02:00</time>
      </trkpt>
      <trkpt lat="43.40815" lon="6.45217">
        <ele>57</ele>
        <time>2018-10-23T22:31:03+02:00</time>
      </trkpt>
      <trkpt lat="43.40849" lon="6.45113">
        <ele>54</ele>
        <time>2018-10-23T22:31:08+02:00</time>
      </trkpt>
      <trkpt lat="43.40842" lon="6.45075">
        <ele>51</ele>
        <time>2018-10-23T22:31:13+02:00</time>
      </trkpt>
      <trkpt lat="43.40845" lon="6.45048">
        <ele>51</ele>
        <time>2018-10-23T22:31:18+02:00</time>
      </trkpt>
      <trkpt lat="43.40861" lon="6.4501">
        <ele>51</ele>
        <time>2018-10-23T22:31:23+02:00</time>
      </trkpt>
      <trkpt lat="43.4089" lon="6.44965">
        <ele>52</ele>
        <time>2018-10-23T22:31:28+02:00</time>
      </trkpt>
      <trkpt lat="43.4095" lon="6.44898">
        <ele>54</ele>
        <time>2018-10-23T22:31:33+02:00</time>
      </trkpt>
      <trkpt lat="43.41002" lon="6.44825">
        <ele>59</ele>
        <time>2018-10-23T22:31:38+02:00</time>
      </trkpt>
      <trkpt lat="43.41027" lon="6.44748">
        <ele>60</ele>
        <time>2018-10-23T22:31:43+02:00</time>
      </trkpt>
      <trkpt lat="43.41047" lon="6.4471">
        <ele>60</ele>
        <time>2018-10-23T22:31:48+02:00</time>
      </trkpt>
      <trkpt lat="43.41065" lon="6.44679">
        <ele>60</ele>
        <time>2018-10-23T22:31:53+02:00</time>
      </trkpt>
      <trkpt lat="43.41083" lon="6.44648">
        <ele>60</ele>
        <time>2018-10-23T22:31:58+02:00</time>
      </trkpt>
      <trkpt lat="43.41125" lon="6.44606">
        <ele>60</ele>
        <time>2018-10-23T22:32:03+02:00</time>
      </trkpt>
      <trkpt lat="43.41139" lon="6.44574">
        <ele>60</ele>
        <time>2018-10-23T22:32:08+02:00</time>
      </trkpt>
      <trkpt lat="43.41153" lon="6.44548">
        <ele>61</ele>
        <time>2018-10-23T22:32:13+02:00</time>
      </trkpt>
      <trkpt lat="43.41185" lon="6.44503">
        <ele>63</ele>
        <time>2018-10-23T22:32:18+02:00</time>
      </trkpt>
      <trkpt lat="43.41225" lon="6.44475">
        <ele>68</ele>
        <time>2018-10-23T22:32:23+02:00</time>
      </trkpt>
      <trkpt lat="43.41265" lon="6.44455">
        <ele>70</ele>
        <time>2018-10-23T22:32:28+02:00</time>
      </trkpt>
      <trkpt lat="43.41302" lon="6.44434">
        <ele>70</ele>
        <time>2018-10-23T22:32:33+02:00</time>
      </trkpt>
      <trkpt lat="43.41339" lon="6.44395">
        <ele>70</ele>
        <time>2018-10-23T22:32:38+02:00</time>
      </trkpt>
      <trkpt lat="43.41345" lon="6.44353">
        <ele>70</ele>
        <time>2018-10-23T22:32:43+02:00</time>
      </trkpt>
      <trkpt lat="43.41337" lon="6.443">
        <ele>70</ele>
        <time>2018-10-23T22:32:48+02:00</time>
      </trkpt>
      <trkpt lat="43.41348" lon="6.4426">
        <ele>70</ele>
        <time>2018-10-23T22:32:53+02:00</time>
      </trkpt>
      <trkpt lat="43.41363" lon="6.44228">
        <ele>70</ele>
        <time>2018-10-23T22:32:58+02:00</time>
      </trkpt>
      <trkpt lat="43.41364" lon="6.44168">
        <ele>70</ele>
        <time>2018-10-23T22:33:03+02:00</time>
      </trkpt>
      <trkpt lat="43.41352" lon="6.44059">
        <ele>75</ele>
        <time>2018-10-23T22:33:08+02:00</time>
      </trkpt>
      <trkpt lat="43.41337" lon="6.44">
        <ele>75</ele>
        <time>2018-10-23T22:33:13+02:00</time>
      </trkpt>
      <trkpt lat="43.41406" lon="6.43923">
        <ele>75</ele>
        <time>2018-10-23T22:33:18+02:00</time>
      </trkpt>
      <trkpt lat="43.41418" lon="6.43865">
        <ele>76</ele>
        <time>2018-10-23T22:33:23+02:00</time>
      </trkpt>
      <trkpt lat="43.41424" lon="6.43807">
        <ele>78</ele>
        <time>2018-10-23T22:33:28+02:00</time>
      </trkpt>
      <trkpt lat="43.41423" lon="6.43707">
        <ele>78</ele>
        <time>2018-10-23T22:33:33+02:00</time>
      </trkpt>
      <trkpt lat="43.41421" lon="6.43617">
        <ele>78</ele>
        <time>2018-10-23T22:33:38+02:00</time>
      </trkpt>
      <trkpt lat="43.41425" lon="6.43527">
        <ele>78</ele>
        <time>2018-10-23T22:33:43+02:00</time>
      </trkpt>
      <trkpt lat="43.41417" lon="6.43385">
        <ele>78</ele>
        <time>2018-10-23T22:33:48+02:00</time>
      </trkpt>
      <trkpt lat="43.41405" lon="6.43249">
        <ele>76</ele>
        <time>2018-10-23T22:33:53+02:00</time>
      </trkpt>
      <trkpt lat="43.4139" lon="6.43122">
        <ele>74</ele>
        <time>2018-10-23T22:33:58+02:00</time>
      </trkpt>
      <trkpt lat="43.41383" lon="6.43085">
        <ele>72</ele>
        <time>2018-10-23T22:34:03+02:00</time>
      </trkpt>
      <trkpt lat="43.41379" lon="6.43073">
        <ele>72</ele>
        <time>2018-10-23T22:34:08+02:00</time>
      </trkpt>
      <trkpt lat="43.41282" lon="6.42997">
        <ele>68</ele>
        <time>2018-10-23T22:34:13+02:00</time>
      </trkpt>
      <trkpt lat="43.41277" lon="6.42979">
        <ele>68</ele>
        <time>2018-10-23T22:34:18+02:00</time>
      </trkpt>
      <trkpt lat="43.41277" lon="6.42947">
        <ele>69</ele>
        <time>2018-10-23T22:34:23+02:00</time>
      </trkpt>
      <trkpt lat="43.41346" lon="6.4292">
        <ele>70</ele>
        <time>2018-10-23T22:34:28+02:00</time>
      </trkpt>
      <trkpt lat="43.41413" lon="6.42896">
        <ele>74</ele>
        <time>2018-10-23T22:34:33+02:00</time>
      </trkpt>
      <trkpt lat="43.41472" lon="6.42846">
        <ele>68</ele>
        <time>2018-10-23T22:34:38+02:00</time>
      </trkpt>
      <trkpt lat="43.41523" lon="6.42805">
        <ele>63</ele>
        <time>2018-10-23T22:34:43+02:00</time>
      </trkpt>
      <trkpt lat="43.41531" lon="6.42803">
        <ele>63</ele>
        <time>2018-10-23T22:34:48+02:00</time>
      </trkpt>
      <trkpt lat="43.41538" lon="6.42815">
        <ele>64</ele>
        <time>2018-10-23T22:34:53+02:00</time>
      </trkpt>
      <trkpt lat="43.41554" lon="6.42812">
        <ele>64</ele>
        <time>2018-10-23T22:34:58+02:00</time>
      </trkpt>
      <trkpt lat="43.41578" lon="6.42798">
        <ele>63</ele>
        <time>2018-10-23T22:35:03+02:00</time>
      </trkpt>
      <trkpt lat="43.41591" lon="6.42796">
        <ele>63</ele>
        <time>2018-10-23T22:35:08+02:00</time>
      </trkpt>
      <trkpt lat="43.41619" lon="6.428">
        <ele>61</ele>
        <time>2018-10-23T22:35:13+02:00</time>
      </trkpt>
      <trkpt lat="43.41645" lon="6.42818">
        <ele>60</ele>
        <time>2018-10-23T22:35:18+02:00</time>
      </trkpt>
      <trkpt lat="43.41664" lon="6.42834">
        <ele>59</ele>
        <time>2018-10-23T22:35:23+02:00</time>
      </trkpt>
      <trkpt lat="43.41699" lon="6.42854">
        <ele>58</ele>
        <time>2018-10-23T22:35:28+02:00</time>
      </trkpt>
      <trkpt lat="43.41732" lon="6.42865">
        <ele>58</ele>
        <time>2018-10-23T22:35:33+02:00</time>
      </trkpt>
      <trkpt lat="43.41775" lon="6.42862">
        <ele>57</ele>
        <time>2018-10-23T22:35:38+02:00</time>
      </trkpt>
    </trkseg>
  </trk>
</gpx>